Young America, Minnesota
Current Conditions -  °F | °C
As of 9:54 PM on Sunday 23 Nov 2014 (Local Time) from KGYL Reporting Station
Overcast Overcast  
Wind Chill: -5°   Ceiling: 2400
Heat Index:   Visibility: 10mi
Dew Point: -1°   Wind: 18mph
Humidity: 86%   Direction: 290°WNW
Pressure: 29.4"   Gusts: 24mph
Location:  44.78°N, 93.92°W
Report Text: KGYL 240354Z AUTO 29016G21KT 10SM SCT019 OVC024 01/M01 A2940 RMK AO2 T00091012
Loading
Personal Weather Stations






























Interactive Weather Map New forecast layout! Learn more

10-Day Weather Forecast

Advertisements
Track Severe Weather on mobile